createdAt,value
2019-04-16T00:02:29.983Z,10.13
2019-04-16T00:05:17.072Z,9.70
2019-04-16T00:08:00.316Z,8.97
2019-04-16T00:11:01.318Z,9.20
2019-04-16T00:13:49.628Z,9.23
2019-04-16T00:16:19.337Z,8.87
2019-04-16T00:18:57.355Z,8.43
2019-04-16T00:21:41.878Z,8.90
2019-04-16T00:24:27.504Z,8.87
2019-04-16T00:26:59.095Z,8.67
2019-04-16T00:29:32.719Z,9.00
2019-04-16T00:32:07.844Z,8.90
2019-04-16T00:34:34.639Z,9.13
2019-04-16T00:37:06.121Z,8.93
2019-04-16T00:39:35.628Z,8.70
2019-04-16T00:42:05.112Z,8.90
2019-04-16T00:44:34.486Z,8.23
2019-04-16T00:47:03.913Z,9.23
2019-04-16T00:49:33.716Z,9.73
2019-04-16T00:52:06.773Z,9.40
2019-04-16T00:54:35.820Z,9.23
2019-04-16T00:57:05.669Z,8.90
2019-04-16T00:59:35.083Z,8.40
2019-04-16T01:02:05.661Z,8.53
2019-04-16T01:04:37.304Z,8.43
2019-04-16T01:07:06.811Z,8.97
2019-04-16T01:09:36.245Z,8.43
2019-04-16T01:12:06.575Z,8.87
2019-04-16T01:14:36.048Z,8.47
2019-04-16T01:17:08.725Z,9.33
2019-04-16T01:19:40.833Z,8.90
2019-04-16T01:22:09.753Z,9.53
2019-04-16T01:24:39.410Z,8.90
2019-04-16T01:27:09.278Z,8.27
2019-04-16T01:29:39.799Z,8.37
2019-04-16T01:32:49.441Z,8.97
2019-04-16T01:35:51.527Z,7.70
2019-04-16T01:38:43.585Z,8.23
2019-04-16T01:41:14.972Z,8.57
2019-04-16T01:43:44.385Z,8.37
2019-04-16T01:46:15.220Z,8.77
2019-04-16T01:48:45.917Z,7.70
2019-04-16T01:51:19.982Z,8.97
2019-04-16T01:53:52.059Z,8.63
2019-04-16T01:56:21.613Z,8.80
2019-04-16T01:58:51.305Z,7.70
2019-04-16T02:01:20.824Z,8.50
2019-04-16T02:03:52.272Z,7.93
2019-04-16T02:06:25.918Z,7.97
2019-04-16T02:09:01.448Z,9.03
2019-04-16T02:11:27.798Z,7.83
2019-04-16T02:13:57.172Z,8.10
2019-04-16T02:16:29.262Z,8.00
2019-04-16T02:19:01.305Z,8.07
2019-04-16T02:21:31.245Z,7.80
2019-04-16T02:24:01.118Z,8.23
2019-04-16T02:26:31.099Z,7.90
2019-04-16T02:29:00.557Z,8.23
2019-04-16T02:31:30.013Z,8.50
2019-04-16T02:33:59.772Z,7.33
2019-04-16T02:36:29.217Z,7.50
2019-04-16T02:38:58.586Z,7.70
2019-04-16T02:41:29.186Z,8.27
2019-04-16T02:43:58.595Z,8.37
2019-04-16T02:46:32.064Z,8.70
2019-04-16T02:49:00.719Z,8.33
2019-04-16T02:51:44.846Z,8.40
2019-04-16T02:54:32.339Z,8.03
2019-04-16T02:57:16.727Z,8.13
2019-04-16T02:59:47.936Z,7.60
2019-04-16T03:02:32.395Z,8.00
2019-04-16T03:05:26.598Z,7.30
2019-04-16T03:07:56.203Z,8.40
2019-04-16T03:10:25.951Z,7.90
2019-04-16T03:12:55.696Z,7.47
2019-04-16T03:15:45.115Z,7.57
2019-04-16T03:18:16.241Z,7.70
2019-04-16T03:20:46.842Z,8.13
2019-04-16T03:23:16.271Z,8.07
2019-04-16T03:25:45.693Z,7.90
2019-04-16T03:28:15.552Z,7.53
2019-04-16T03:30:46.375Z,8.17
2019-04-16T03:33:16.471Z,8.50
2019-04-16T03:35:46.686Z,7.73
2019-04-16T03:38:18.725Z,8.23
2019-04-16T03:40:48.140Z,8.10
2019-04-16T03:43:17.563Z,8.23
2019-04-16T03:45:46.995Z,8.40
2019-04-16T03:48:16.753Z,8.33
2019-04-16T03:50:46.205Z,8.23
2019-04-16T03:53:18.017Z,8.37
2019-04-16T03:55:49.806Z,8.37
2019-04-16T03:58:19.268Z,8.17
2019-04-16T04:00:48.724Z,8.00
2019-04-16T04:03:18.676Z,8.53
2019-04-16T04:05:58.479Z,7.87
2019-04-16T04:08:29.005Z,8.23
2019-04-16T04:10:58.800Z,8.33
2019-04-16T04:13:28.608Z,8.40
2019-04-16T04:15:58.523Z,8.20
2019-04-16T04:18:29.503Z,7.83
2019-04-16T04:20:58.883Z,8.53
2019-04-16T04:23:29.531Z,7.83
2019-04-16T04:25:58.811Z,8.77
2019-04-16T04:28:28.189Z,8.67
2019-04-16T04:31:00.330Z,8.43
2019-04-16T04:33:41.938Z,8.80
2019-04-16T04:36:12.222Z,8.73
2019-04-16T04:38:41.718Z,8.57
2019-04-16T04:41:11.392Z,8.50
2019-04-16T04:43:41.155Z,8.70
2019-04-16T04:46:14.434Z,8.57
2019-04-16T04:48:44.185Z,8.87
2019-04-16T04:51:13.939Z,8.60
2019-04-16T04:53:43.875Z,9.57
2019-04-16T04:56:15.294Z,8.03
2019-04-16T04:58:46.385Z,8.83
2019-04-16T05:01:17.104Z,9.67
2019-04-16T05:04:04.524Z,9.23
2019-04-16T05:06:36.268Z,8.80
2019-04-16T05:09:07.494Z,9.03
2019-04-16T05:11:37.134Z,8.47
2019-04-16T05:14:09.028Z,8.77
2019-04-16T05:16:38.468Z,9.07
2019-04-16T05:19:13.823Z,8.87
2019-04-16T05:21:41.414Z,8.53
2019-04-16T05:24:11.634Z,8.17
2019-04-16T05:26:43.348Z,8.43
2019-04-16T05:29:17.067Z,9.20
2019-04-16T05:31:46.486Z,9.07
2019-04-16T05:34:18.388Z,8.77
2019-04-16T05:36:50.385Z,8.33
2019-04-16T05:39:24.381Z,8.40
2019-04-16T05:41:54.860Z,8.67
2019-04-16T05:44:24.241Z,8.70
2019-04-16T05:46:54.296Z,8.70
2019-04-16T05:49:25.635Z,8.63
2019-04-16T05:51:56.677Z,8.67
2019-04-16T05:54:46.723Z,8.37
2019-04-16T05:57:25.640Z,8.90
2019-04-16T05:59:54.900Z,8.50
2019-04-16T06:02:36.649Z,8.63
2019-04-16T06:05:07.436Z,8.73
2019-04-16T06:07:37.880Z,8.70
2019-04-16T06:10:09.885Z,8.23
2019-04-16T06:13:12.693Z,8.40
2019-04-16T06:16:18.212Z,8.70
2019-04-16T06:19:08.498Z,8.03
2019-04-16T06:22:01.678Z,8.43
2019-04-16T06:24:51.082Z,8.20
2019-04-16T06:27:54.668Z,8.30
2019-04-16T06:30:49.376Z,8.53
2019-04-16T06:33:37.863Z,8.20
2019-04-16T06:36:27.932Z,8.77
2019-04-16T06:39:19.302Z,8.80
2019-04-16T06:42:08.717Z,8.43
2019-04-16T06:44:46.120Z,8.50
2019-04-16T06:47:42.096Z,8.73
2019-04-16T06:50:40.576Z,8.47
2019-04-16T06:53:39.154Z,9.13
2019-04-16T06:56:32.843Z,8.87
2019-04-16T06:59:20.274Z,8.57
2019-04-16T07:02:10.310Z,8.23
2019-04-16T07:04:47.292Z,9.13
2019-04-16T07:07:39.952Z,8.13
2019-04-16T07:10:10.593Z,8.87
2019-04-16T07:12:40.774Z,8.17
2019-04-16T07:15:12.832Z,8.43
2019-04-16T07:17:44.260Z,8.27
2019-04-16T07:20:15.859Z,8.27
2019-04-16T07:22:46.497Z,8.87
2019-04-16T07:25:17.805Z,8.17
2019-04-16T07:28:25.174Z,8.77
2019-04-16T07:31:13.511Z,8.43
2019-04-16T07:34:17.610Z,8.67
2019-04-16T07:37:00.954Z,8.47
2019-04-16T07:39:55.557Z,8.63
2019-04-16T07:42:51.681Z,8.30
2019-04-16T07:45:21.426Z,8.90
2019-04-16T07:55:27.503Z,8.90
2019-04-16T07:58:40.774Z,8.83
2019-04-16T08:01:12.688Z,8.70
2019-04-16T08:04:29.024Z,9.07
2019-04-16T08:06:56.762Z,9.00
2019-04-16T08:09:37.019Z,9.27
2019-04-16T08:12:11.169Z,8.63
2019-04-16T08:14:37.588Z,8.93
2019-04-16T08:17:07.583Z,9.00
2019-04-16T08:19:37.656Z,8.93
2019-04-16T08:22:07.303Z,9.50
2019-04-16T08:24:39.969Z,8.73
2019-04-16T08:27:10.451Z,9.83
2019-04-16T08:29:42.252Z,9.57
2019-04-16T08:32:12.818Z,9.17
2019-04-16T08:34:43.453Z,10.10
2019-04-16T08:37:12.902Z,9.33
2019-04-16T08:39:42.244Z,9.63
2019-04-16T08:42:17.708Z,8.90
2019-04-16T08:44:47.549Z,10.20
2019-04-16T08:47:16.923Z,9.23
2019-04-16T08:49:46.373Z,9.63
2019-04-16T08:52:15.819Z,9.33
2019-04-16T08:54:50.033Z,9.03
2019-04-16T08:57:16.671Z,9.70
2019-04-16T08:59:46.350Z,10.10
2019-04-16T09:02:17.727Z,9.57
2019-04-16T09:04:48.241Z,9.90
2019-04-16T09:07:37.812Z,10.03
2019-04-16T09:10:18.232Z,9.97
2019-04-16T09:12:50.803Z,9.70
2019-04-16T09:19:03.030Z,9.17
2019-04-16T09:28:36.983Z,10.17
2019-04-16T09:32:08.591Z,9.70
2019-04-16T09:35:08.142Z,9.70
2019-04-16T09:37:59.092Z,10.60
2019-04-16T09:40:37.589Z,10.10
2019-04-16T09:43:16.681Z,10.87
2019-04-16T09:45:41.792Z,10.07
2019-04-16T09:48:12.478Z,9.87
2019-04-16T09:50:46.480Z,10.10
2019-04-16T09:53:16.416Z,10.63
2019-04-16T09:55:47.512Z,10.40
2019-04-16T09:58:21.746Z,10.43
2019-04-16T10:01:02.173Z,10.47
2019-04-16T10:03:35.414Z,11.23
2019-04-16T10:06:05.749Z,10.93
2019-04-16T10:08:35.401Z,10.73
2019-04-16T10:11:06.248Z,10.97
2019-04-16T10:13:37.012Z,10.23
2019-04-16T10:16:19.861Z,10.70
2019-04-16T10:19:01.370Z,10.73
2019-04-16T10:22:25.201Z,11.30
2019-04-16T10:28:27.643Z,10.87
2019-04-16T10:30:59.790Z,10.70
2019-04-16T10:33:31.595Z,10.37
2019-04-16T10:36:04.167Z,11.07
2019-04-16T10:38:50.075Z,11.63
2019-04-16T10:41:40.121Z,11.77
2019-04-16T10:44:24.698Z,11.23
2019-04-16T10:47:12.510Z,11.67
2019-04-16T10:50:07.824Z,11.83
2019-04-16T10:52:58.435Z,12.27
2019-04-16T10:55:36.225Z,12.60
2019-04-16T10:58:31.988Z,12.17
2019-04-16T11:01:23.819Z,11.83
2019-04-16T11:04:13.254Z,10.73
2019-04-16T11:06:44.742Z,11.67
2019-04-16T11:09:14.234Z,11.47
2019-04-16T11:11:43.701Z,12.10
2019-04-16T11:14:15.481Z,12.30
2019-04-16T11:16:48.211Z,11.03
2019-04-16T11:19:25.684Z,11.37
2019-04-16T11:21:55.145Z,12.73
2019-04-16T11:24:40.854Z,12.93
2019-04-16T11:27:13.223Z,12.10
2019-04-16T11:29:45.396Z,13.10
2019-04-16T11:32:19.392Z,12.37
2019-04-16T11:34:48.785Z,13.10
2019-04-16T11:37:21.840Z,12.90
2019-04-16T11:39:51.311Z,12.67
2019-04-16T11:42:25.341Z,11.80
2019-04-16T11:44:56.251Z,12.47
2019-04-16T11:47:33.846Z,13.30
2019-04-16T11:50:00.820Z,13.17
2019-04-16T11:52:32.893Z,12.80
2019-04-16T11:55:02.289Z,12.77
2019-04-16T11:57:33.126Z,12.57
2019-04-16T12:00:08.458Z,13.40
2019-04-16T12:02:51.236Z,12.53
2019-04-16T12:05:39.257Z,12.90
2019-04-16T12:08:24.404Z,11.80
2019-04-16T12:11:12.766Z,13.33
2019-04-16T12:14:29.157Z,13.67
2019-04-16T12:17:01.526Z,12.70
2019-04-16T12:20:05.057Z,12.87
2019-04-16T12:22:53.154Z,13.10
2019-04-16T12:25:32.712Z,13.50
2019-04-16T12:28:43.240Z,13.37
2019-04-16T12:31:28.232Z,12.47
2019-04-16T12:34:11.738Z,12.90
2019-04-16T12:37:00.053Z,12.83
2019-04-16T12:39:37.607Z,13.20
2019-04-16T12:42:24.377Z,13.40
2019-04-16T12:45:15.749Z,13.37
2019-04-16T12:47:58.946Z,12.70
2019-04-16T12:50:36.174Z,13.03
2019-04-16T12:53:12.043Z,13.17
2019-04-16T12:56:05.928Z,12.87
2019-04-16T12:58:50.770Z,11.97
2019-04-16T13:01:36.451Z,13.57
2019-04-16T13:04:15.096Z,13.47
2019-04-16T13:07:06.760Z,13.13
2019-04-16T13:09:54.455Z,13.07
2019-04-16T13:12:32.411Z,12.87
2019-04-16T13:15:16.773Z,13.77
2019-04-16T13:18:23.477Z,14.20
2019-04-16T13:21:08.087Z,12.53
2019-04-16T13:23:53.786Z,11.73
2019-04-16T13:26:44.227Z,12.93
2019-04-16T13:29:17.331Z,13.03
2019-04-16T13:31:47.860Z,12.80
2019-04-16T13:34:18.615Z,12.90
2019-04-16T13:36:51.412Z,12.23
2019-04-16T13:39:44.354Z,12.63
2019-04-16T13:42:14.077Z,12.37
2019-04-16T13:44:46.588Z,12.40
2019-04-16T13:47:15.983Z,13.10
2019-04-16T13:50:16.562Z,13.03
2019-04-16T13:52:47.270Z,13.57
2019-04-16T13:55:38.352Z,13.60
2019-04-16T13:58:19.796Z,12.50
2019-04-16T14:00:54.138Z,13.40
2019-04-16T14:03:24.875Z,13.47
2019-04-16T14:05:54.642Z,13.07
2019-04-16T14:08:24.037Z,12.70
2019-04-16T14:10:53.536Z,13.77
2019-04-16T14:13:22.854Z,14.80
2019-04-16T14:15:55.305Z,13.00
2019-04-16T14:18:29.602Z,15.10
2019-04-16T14:20:58.080Z,13.63
2019-04-16T14:23:29.697Z,15.03
2019-04-16T14:25:59.052Z,13.97
2019-04-16T14:28:28.397Z,13.93
2019-04-16T14:30:57.743Z,14.97
2019-04-16T14:33:50.497Z,14.33
2019-04-16T14:36:22.161Z,14.93
2019-04-16T14:38:55.086Z,15.20
2019-04-16T14:41:24.439Z,14.17
2019-04-16T14:44:02.532Z,14.23
2019-04-16T14:46:31.231Z,15.60
2019-04-16T14:49:00.802Z,16.57
2019-04-16T14:51:31.762Z,15.67
2019-04-16T14:54:11.919Z,15.83
2019-04-16T14:56:47.825Z,16.60
2019-04-16T14:59:38.706Z,15.40
2019-04-16T15:02:29.126Z,15.77
2019-04-16T15:05:15.770Z,15.80
2019-04-16T15:08:24.016Z,15.70
2019-04-16T15:11:30.648Z,15.57
2019-04-16T15:14:09.872Z,15.53
2019-04-16T15:16:50.647Z,15.23
2019-04-16T15:19:30.237Z,15.80
2019-04-16T15:22:24.042Z,16.60
2019-04-16T15:25:00.075Z,15.63
2019-04-16T15:27:57.916Z,15.57
2019-04-16T15:31:01.598Z,16.13
2019-04-16T15:33:54.857Z,15.03
2019-04-16T15:36:29.509Z,16.43
2019-04-16T15:39:09.922Z,17.07
2019-04-16T15:42:07.259Z,16.67
2019-04-16T15:44:56.114Z,16.43
2019-04-16T15:47:42.935Z,16.23
2019-04-16T15:50:18.096Z,16.27
2019-04-16T15:53:12.109Z,16.80
2019-04-16T15:56:00.946Z,16.37
2019-04-16T15:58:50.859Z,17.17
2019-04-16T16:01:48.217Z,15.83
2019-04-16T16:04:37.871Z,14.87
2019-04-16T16:07:09.411Z,15.87
2019-04-16T16:09:58.434Z,17.03
2019-04-16T16:12:29.060Z,15.43
2019-04-16T16:14:58.392Z,16.33
2019-04-16T16:17:29.587Z,16.20
2019-04-16T16:19:58.966Z,16.93
2019-04-16T16:22:28.380Z,16.63
2019-04-16T16:24:58.600Z,16.93
2019-04-16T16:27:27.969Z,16.00
2019-04-16T16:29:59.033Z,17.00
2019-04-16T16:32:29.909Z,15.47
2019-04-16T16:34:59.404Z,16.40
2019-04-16T16:37:29.880Z,16.43
2019-04-16T16:39:59.193Z,15.93
2019-04-16T16:42:28.624Z,15.30
2019-04-16T16:45:01.635Z,15.87
2019-04-16T16:47:39.736Z,16.77
2019-04-16T16:50:16.590Z,15.70
2019-04-16T16:53:04.369Z,15.17
2019-04-16T16:55:37.920Z,15.80
2019-04-16T16:58:41.679Z,15.37
2019-04-16T17:01:47.120Z,16.33
2019-04-16T17:04:22.333Z,15.23
2019-04-16T17:06:54.055Z,15.90
2019-04-16T17:09:31.150Z,15.47
2019-04-16T17:12:02.051Z,15.37
2019-04-16T17:14:37.738Z,14.77
2019-04-16T17:17:13.756Z,15.47
2019-04-16T17:19:40.297Z,14.70
2019-04-16T17:22:09.652Z,15.00
2019-04-16T17:24:41.924Z,15.00
2019-04-16T17:27:13.028Z,14.90
2019-04-16T17:29:42.730Z,15.23
2019-04-16T17:32:14.472Z,15.73
2019-04-16T17:34:45.640Z,15.47
2019-04-16T17:37:15.093Z,14.57
2019-04-16T17:39:55.409Z,14.67
2019-04-16T17:42:29.616Z,14.30
2019-04-16T17:45:26.498Z,15.07
2019-04-16T17:48:20.982Z,14.50
2019-04-16T17:51:06.505Z,15.13
2019-04-16T17:53:43.395Z,14.20
2019-04-16T17:56:30.386Z,14.80
2019-04-16T17:59:22.820Z,14.67
2019-04-16T18:02:11.535Z,14.67
2019-04-16T18:05:01.479Z,13.83
2019-04-16T18:07:48.527Z,14.37
2019-04-16T18:10:39.140Z,14.23
2019-04-16T18:13:15.685Z,14.63
2019-04-16T18:16:11.452Z,13.70
2019-04-16T18:18:44.391Z,14.83
2019-04-16T18:21:47.160Z,13.97
2019-04-16T18:24:34.309Z,14.83
2019-04-16T18:27:25.568Z,14.27
2019-04-16T18:30:11.569Z,14.70
2019-04-16T18:33:06.232Z,13.63
2019-04-16T18:35:54.688Z,14.07
2019-04-16T18:38:46.893Z,14.17
2019-04-16T18:41:41.263Z,14.37
2019-04-16T18:44:32.630Z,14.10
2019-04-16T18:47:12.306Z,14.10
2019-04-16T18:49:41.977Z,14.37
2019-04-16T18:52:14.500Z,13.90
2019-04-16T18:54:46.059Z,14.37
2019-04-16T18:57:21.384Z,13.67
2019-04-16T18:59:56.385Z,13.73
2019-04-16T19:02:29.175Z,13.50
2019-04-16T19:05:02.324Z,13.70
2019-04-16T19:07:36.373Z,14.13
2019-04-16T19:10:27.295Z,13.27
2019-04-16T19:12:58.526Z,13.23
2019-04-16T19:15:29.443Z,12.97
2019-04-16T19:17:58.865Z,13.63
2019-04-16T19:20:28.683Z,14.00
2019-04-16T19:23:00.508Z,13.37
2019-04-16T19:25:29.938Z,13.67
2019-04-16T19:28:04.461Z,13.63
2019-04-16T19:30:34.408Z,13.07
2019-04-16T19:33:04.185Z,13.47
2019-04-16T19:35:34.997Z,13.77
2019-04-16T19:38:06.181Z,13.67
2019-04-16T19:40:36.094Z,13.77
2019-04-16T19:43:06.830Z,13.53
2019-04-16T19:45:40.664Z,13.03
2019-04-16T19:48:11.498Z,14.00
2019-04-16T19:50:41.556Z,14.10
2019-04-16T19:53:14.926Z,13.80
2019-04-16T19:55:45.897Z,15.20
2019-04-16T19:58:17.536Z,13.47
2019-04-16T20:00:49.571Z,13.90
2019-04-16T20:03:21.832Z,14.43
2019-04-16T20:05:51.572Z,14.33
2019-04-16T20:08:23.861Z,14.60
2019-04-16T20:10:53.637Z,13.87
2019-04-16T20:13:24.997Z,14.60
2019-04-16T20:16:01.336Z,13.73
2019-04-16T20:18:33.190Z,14.27
2019-04-16T20:21:05.104Z,13.47
2019-04-16T20:23:36.018Z,14.37
2019-04-16T20:26:08.013Z,14.37
2019-04-16T20:28:40.136Z,14.63
2019-04-16T20:31:10.723Z,15.10
2019-04-16T20:33:40.484Z,14.37
2019-04-16T20:36:13.798Z,14.37
2019-04-16T20:38:43.333Z,14.67
2019-04-16T20:41:18.141Z,16.57
2019-04-16T20:43:45.462Z,15.80
2019-04-16T20:46:18.174Z,15.50
2019-04-16T20:48:49.458Z,15.83
2019-04-16T20:51:20.356Z,15.73
2019-04-16T20:53:51.389Z,15.27
2019-04-16T20:56:21.659Z,15.07
2019-04-16T20:58:51.288Z,14.87
2019-04-16T21:01:34.028Z,15.70
2019-04-16T21:04:05.939Z,15.77
2019-04-16T21:06:31.857Z,16.23
2019-04-16T21:09:01.308Z,15.43
2019-04-16T21:11:40.520Z,15.20
2019-04-16T21:14:07.253Z,15.37
2019-04-16T21:16:40.228Z,15.33
2019-04-16T21:19:22.927Z,14.57
2019-04-16T21:21:44.462Z,14.33
2019-04-16T21:24:14.863Z,14.43
2019-04-16T21:26:50.957Z,17.10
2019-04-16T21:29:25.451Z,16.87
2019-04-16T21:31:59.504Z,16.40
2019-04-16T21:34:41.900Z,15.23
2019-04-16T21:37:34.084Z,15.50
2019-04-16T21:40:05.428Z,15.60
2019-04-16T21:42:37.835Z,15.67
2019-04-16T21:45:13.698Z,15.00
2019-04-16T21:47:43.942Z,14.77
2019-04-16T21:50:16.282Z,15.93
2019-04-16T21:52:45.006Z,16.33
2019-04-16T21:55:15.861Z,16.27
2019-04-16T21:57:46.068Z,16.03
2019-04-16T22:00:48.123Z,17.00
2019-04-16T22:03:19.383Z,16.80
2019-04-16T22:05:49.116Z,16.07
2019-04-16T22:08:20.069Z,16.10
2019-04-16T22:10:50.314Z,15.67
2019-04-16T22:13:20.150Z,15.43
2019-04-16T22:15:49.713Z,16.73
2019-04-16T22:18:22.931Z,16.53
2019-04-16T22:20:52.472Z,16.13
2019-04-16T22:23:24.201Z,16.70
2019-04-16T22:25:53.516Z,17.13
2019-04-16T22:28:26.607Z,16.13
2019-04-16T22:30:58.386Z,16.27
2019-04-16T22:33:27.755Z,17.47
2019-04-16T22:35:57.249Z,17.43
2019-04-16T22:38:30.957Z,16.80
2019-04-16T22:41:05.659Z,15.67
2019-04-16T22:44:07.627Z,17.67
2019-04-16T22:47:02.374Z,16.07
2019-04-16T22:49:34.906Z,17.40
2019-04-16T22:52:05.807Z,17.73
2019-04-16T22:54:35.326Z,16.03
2019-04-16T22:57:08.254Z,18.13
2019-04-16T22:59:40.063Z,16.87
2019-04-16T23:02:17.725Z,17.67
2019-04-16T23:04:49.127Z,17.17
2019-04-16T23:07:18.883Z,17.27
2019-04-16T23:09:51.799Z,17.60
2019-04-16T23:12:21.470Z,17.47
2019-04-16T23:14:50.937Z,17.73
2019-04-16T23:17:24.760Z,17.47
2019-04-16T23:19:55.510Z,18.80
2019-04-16T23:22:26.051Z,17.23
2019-04-16T23:24:56.656Z,16.80
2019-04-16T23:27:27.654Z,18.07
2019-04-16T23:29:57.360Z,17.50
2019-04-16T23:32:28.623Z,18.23
2019-04-16T23:34:59.306Z,17.87
2019-04-16T23:37:31.131Z,18.40
2019-04-16T23:40:01.641Z,18.13
2019-04-16T23:42:37.110Z,17.40
2019-04-16T23:45:38.151Z,18.33
2019-04-16T23:48:19.886Z,17.77
2019-04-16T23:51:11.167Z,18.20
2019-04-16T23:53:48.412Z,18.17
2019-04-16T23:56:43.465Z,18.90
2019-04-16T23:59:21.320Z,17.83
